createdAt,value
2022-08-09T00:00:00.505Z,2.83
2022-08-09T00:02:28.566Z,4.20
2022-08-09T00:05:03.191Z,3.38
2022-08-09T00:07:44.878Z,3.45
2022-08-09T00:10:18.034Z,3.38
2022-08-09T00:12:52.477Z,3.42
2022-08-09T00:15:20.382Z,3.20
2022-08-09T00:18:05.840Z,4.05
2022-08-09T00:20:42.135Z,3.60
2022-08-09T00:23:55.530Z,3.03
2022-08-09T00:26:05.112Z,3.78
2022-08-09T00:28:34.394Z,3.00
2022-08-09T00:31:55.820Z,3.20
2022-08-09T00:33:51.966Z,3.80
2022-08-09T00:36:19.992Z,3.53
2022-08-09T00:38:50.693Z,3.67
2022-08-09T00:44:18.734Z,3.47
2022-08-09T00:44:25.327Z,3.22
2022-08-09T00:46:57.658Z,3.08
2022-08-09T00:49:36.833Z,3.42
2022-08-09T00:52:15.933Z,3.20
2022-08-09T00:54:45.587Z,3.20
2022-08-09T00:57:12.813Z,3.50
2022-08-09T00:59:46.947Z,3.25
2022-08-09T01:02:22.205Z,3.22
2022-08-09T01:05:22.011Z,3.45
2022-08-09T01:08:04.743Z,3.63
2022-08-09T01:10:38.768Z,3.38
2022-08-09T01:13:31.063Z,3.30
2022-08-09T01:16:12.896Z,3.17
2022-08-09T01:18:47.594Z,3.20
2022-08-09T01:21:51.083Z,3.53
2022-08-09T01:24:26.369Z,3.53
2022-08-09T01:26:55.006Z,3.40
2022-08-09T01:29:40.946Z,3.60
2022-08-09T01:32:30.906Z,3.35
2022-08-09T01:35:06.990Z,3.97
2022-08-09T01:38:08.209Z,3.45
2022-08-09T01:40:35.681Z,3.83
2022-08-09T01:43:04.961Z,3.38
2022-08-09T01:45:35.516Z,3.33
2022-08-09T01:48:14.209Z,3.33
2022-08-09T01:50:48.378Z,3.33
2022-08-09T01:53:19.409Z,3.28
2022-08-09T01:55:48.720Z,2.88
2022-08-09T01:58:16.604Z,3.03
2022-08-09T02:00:50.672Z,3.30
2022-08-09T02:03:19.555Z,3.53
2022-08-09T02:06:03.861Z,3.38
2022-08-09T02:08:58.559Z,3.47
2022-08-09T02:11:40.300Z,3.50
2022-08-09T02:14:15.072Z,3.13
2022-08-09T02:16:59.912Z,3.60
2022-08-09T02:19:43.268Z,3.30
2022-08-09T02:22:19.097Z,3.30
2022-08-09T02:24:59.120Z,3.88
2022-08-09T02:30:16.276Z,3.65
2022-08-09T02:32:47.588Z,3.60
2022-08-09T02:35:46.356Z,3.28
2022-08-09T02:38:10.825Z,3.30
2022-08-09T02:40:49.334Z,3.90
2022-08-09T02:43:19.539Z,3.88
2022-08-09T02:45:52.164Z,3.72
2022-08-09T02:48:30.705Z,3.30
2022-08-09T02:51:02.587Z,3.67
2022-08-09T02:53:37.068Z,3.40
2022-08-09T02:56:06.277Z,3.40
2022-08-09T02:58:37.960Z,3.58
2022-08-09T03:04:17.660Z,4.00
2022-08-09T03:06:29.331Z,3.92
2022-08-09T03:08:57.694Z,3.50
2022-08-09T03:12:06.555Z,3.42
2022-08-09T03:14:13.630Z,3.72
2022-08-09T03:16:47.530Z,3.50
2022-08-09T03:19:52.461Z,5.22
2022-08-09T03:22:12.067Z,4.25
2022-08-09T03:24:52.126Z,4.15
2022-08-09T03:27:22.232Z,3.92
2022-08-09T03:30:00.947Z,3.67
2022-08-09T03:32:31.165Z,3.63
2022-08-09T03:34:59.854Z,3.53
2022-08-09T03:37:56.180Z,3.90
2022-08-09T03:40:17.897Z,4.22
2022-08-09T03:42:45.719Z,3.42
2022-08-09T03:45:13.468Z,3.80
2022-08-09T03:47:42.078Z,3.50
2022-08-09T03:50:14.648Z,3.35
2022-08-09T03:52:56.239Z,3.95
2022-08-09T03:55:24.731Z,3.08
2022-08-09T03:58:06.684Z,3.55
2022-08-09T04:00:42.340Z,3.75
2022-08-09T04:03:11.878Z,3.75
2022-08-09T04:05:46.802Z,3.75
2022-08-09T04:08:13.493Z,3.67
2022-08-09T04:10:40.285Z,3.97
2022-08-09T04:13:11.508Z,4.10
2022-08-09T04:16:18.797Z,4.32
2022-08-09T04:18:25.859Z,3.47
2022-08-09T04:20:55.554Z,3.55
2022-08-09T04:23:24.999Z,4.25
2022-08-09T04:25:54.238Z,4.10
2022-08-09T04:28:32.887Z,4.00
2022-08-09T04:31:01.028Z,4.22
2022-08-09T04:33:47.349Z,3.80
2022-08-09T04:36:24.617Z,4.22
2022-08-09T04:38:51.380Z,3.75
2022-08-09T04:41:19.051Z,3.67
2022-08-09T04:44:05.104Z,4.70
2022-08-09T04:46:37.986Z,3.95
2022-08-09T04:49:30.296Z,3.67
2022-08-09T04:52:09.738Z,4.13
2022-08-09T04:54:37.140Z,4.30
2022-08-09T04:57:04.416Z,4.28
2022-08-09T04:59:31.495Z,4.07
2022-08-09T05:01:58.824Z,4.53
2022-08-09T05:04:30.745Z,3.80
2022-08-09T05:06:58.398Z,3.38
2022-08-09T05:09:25.408Z,4.03
2022-08-09T05:12:09.613Z,4.00
2022-08-09T05:14:37.968Z,3.85
2022-08-09T05:18:36.729Z,3.78
2022-08-09T05:19:57.065Z,4.25
2022-08-09T05:22:36.316Z,3.75
2022-08-09T05:25:15.121Z,3.60
2022-08-09T05:27:46.548Z,4.00
2022-08-09T05:30:17.648Z,3.40
2022-08-09T05:32:50.800Z,3.67
2022-08-09T05:35:22.024Z,3.90
2022-08-09T05:37:50.580Z,4.20
2022-08-09T05:40:18.245Z,4.20
2022-08-09T05:42:45.214Z,3.28
2022-08-09T05:45:14.236Z,4.03
2022-08-09T05:47:51.727Z,3.90
2022-08-09T05:50:30.508Z,4.30
2022-08-09T05:53:06.202Z,4.32
2022-08-09T05:55:38.599Z,3.95
2022-08-09T05:58:07.144Z,4.03
2022-08-09T06:00:34.023Z,3.78
2022-08-09T06:03:03.389Z,4.50
2022-08-09T06:05:50.549Z,3.75
2022-08-09T06:08:24.573Z,3.92
2022-08-09T06:10:56.236Z,4.18
2022-08-09T06:13:28.342Z,4.47
2022-08-09T06:16:00.343Z,4.05
2022-08-09T06:18:28.871Z,4.13
2022-08-09T06:20:57.713Z,4.45
2022-08-09T06:23:58.537Z,3.83
2022-08-09T06:26:20.999Z,4.03
2022-08-09T06:29:00.728Z,4.47
2022-08-09T06:31:39.271Z,4.13
2022-08-09T06:34:19.015Z,4.40
2022-08-09T06:36:45.883Z,3.92
2022-08-09T06:39:13.640Z,3.85
2022-08-09T06:42:08.668Z,4.00
2022-08-09T06:44:28.000Z,4.28
2022-08-09T06:46:55.491Z,4.38
2022-08-09T06:49:44.884Z,3.95
2022-08-09T06:52:10.560Z,4.20
2022-08-09T06:54:38.944Z,4.30
2022-08-09T06:57:08.353Z,3.88
2022-08-09T07:00:51.426Z,4.28
2022-08-09T07:02:22.109Z,4.43
2022-08-09T07:04:56.204Z,3.88
2022-08-09T07:08:00.807Z,4.18
2022-08-09T07:10:22.484Z,3.83
2022-08-09T07:12:57.638Z,3.97
2022-08-09T07:16:36.539Z,3.85
2022-08-09T07:18:11.314Z,3.88
2022-08-09T07:20:43.484Z,4.20
2022-08-09T07:23:18.620Z,4.15
2022-08-09T07:25:47.349Z,3.50
2022-08-09T07:28:19.314Z,3.55
2022-08-09T07:30:54.914Z,4.13
2022-08-09T07:33:21.939Z,3.90
2022-08-09T07:35:53.515Z,3.55
2022-08-09T07:38:23.807Z,3.67
2022-08-09T07:41:11.837Z,3.38
2022-08-09T07:43:41.123Z,3.38
2022-08-09T07:46:17.266Z,3.58
2022-08-09T07:48:46.456Z,3.42
2022-08-09T07:52:06.086Z,3.35
2022-08-09T07:54:12.809Z,2.95
2022-08-09T07:56:48.631Z,3.55
2022-08-09T07:59:25.667Z,3.25
2022-08-09T08:02:05.486Z,3.63
2022-08-09T08:04:33.204Z,3.60
2022-08-09T08:07:09.293Z,3.33
2022-08-09T08:09:51.558Z,3.13
2022-08-09T08:12:27.545Z,3.88
2022-08-09T08:29:27.816Z,2.95
2022-08-09T09:27:02.847Z,2.53
2022-08-09T09:30:14.312Z,2.40
2022-08-09T09:32:34.262Z,2.22
2022-08-09T09:35:15.960Z,2.40
2022-08-09T09:37:45.861Z,2.17
2022-08-09T09:40:13.173Z,2.10
2022-08-09T09:42:42.996Z,2.22
2022-08-09T09:45:14.345Z,2.20
2022-08-09T09:47:56.412Z,2.88
2022-08-09T09:50:49.584Z,2.80
2022-08-09T09:53:43.814Z,2.70
2022-08-09T09:56:31.295Z,2.47
2022-08-09T09:58:58.058Z,2.42
2022-08-09T10:01:30.275Z,2.30
2022-08-09T10:04:09.683Z,2.38
2022-08-09T10:06:43.461Z,2.67
2022-08-09T10:09:22.532Z,2.70
2022-08-09T10:12:12.837Z,2.30
2022-08-09T10:14:49.450Z,2.30
2022-08-09T10:17:50.376Z,2.33
2022-08-09T10:20:27.316Z,2.70
2022-08-09T10:23:13.492Z,2.35
2022-08-09T10:26:07.795Z,2.28
2022-08-09T10:28:32.843Z,2.42
2022-08-09T10:37:45.329Z,2.20
2022-08-09T10:40:35.198Z,2.42
2022-08-09T10:43:00.812Z,2.35
2022-08-09T10:45:31.952Z,2.25
2022-08-09T10:48:31.309Z,2.53
2022-08-09T10:51:29.728Z,2.50
2022-08-09T10:54:04.979Z,2.67
2022-08-09T10:56:35.095Z,2.40
2022-08-09T10:59:30.978Z,2.40
2022-08-09T11:03:15.302Z,2.30
2022-08-09T11:05:24.886Z,2.42
2022-08-09T11:08:17.154Z,2.70
2022-08-09T11:10:47.038Z,2.33
2022-08-09T11:13:49.180Z,2.90
2022-08-09T11:16:37.426Z,2.25
2022-08-09T11:19:10.738Z,2.60
2022-08-09T11:21:57.485Z,2.58
2022-08-09T11:24:58.184Z,2.45
2022-08-09T11:28:05.637Z,2.47
2022-08-09T11:30:32.452Z,2.35
2022-08-09T11:33:05.813Z,2.30
2022-08-09T11:35:50.249Z,1.77
2022-08-09T11:38:32.619Z,2.00
2022-08-09T11:41:37.960Z,2.53
2022-08-09T11:44:05.660Z,2.17
2022-08-09T11:46:55.131Z,2.30
2022-08-09T11:50:55.787Z,2.30
2022-08-09T11:53:16.368Z,2.38
2022-08-09T11:55:52.270Z,2.08
2022-08-09T11:58:32.523Z,2.53
2022-08-09T12:01:37.336Z,2.08
2022-08-09T12:04:04.086Z,2.15
2022-08-09T12:06:35.140Z,2.15
2022-08-09T12:09:19.416Z,2.38
2022-08-09T12:12:05.879Z,2.28
2022-08-09T12:15:04.013Z,2.35
2022-08-09T12:17:34.258Z,2.30
2022-08-09T12:20:21.736Z,2.20
2022-08-09T12:22:55.760Z,2.20
2022-08-09T12:25:36.037Z,2.47
2022-08-09T12:29:15.615Z,2.25
2022-08-09T12:30:57.801Z,2.30
2022-08-09T12:33:35.421Z,2.20
2022-08-09T12:36:27.614Z,2.60
2022-08-09T12:38:59.849Z,2.33
2022-08-09T12:41:38.058Z,2.60
2022-08-09T12:44:09.728Z,2.17
2022-08-09T12:46:39.696Z,2.20
2022-08-09T12:49:08.769Z,2.42
2022-08-09T12:52:01.672Z,2.78
2022-08-09T12:54:23.888Z,2.10
2022-08-09T12:56:54.033Z,2.40
2022-08-09T12:59:23.677Z,2.03
2022-08-09T13:01:59.541Z,2.00
2022-08-09T13:04:36.198Z,1.80
2022-08-09T13:07:19.589Z,2.33
2022-08-09T13:09:56.003Z,2.30
2022-08-09T13:12:28.197Z,2.00
2022-08-09T13:15:05.016Z,2.33
2022-08-09T13:18:03.779Z,2.47
2022-08-09T13:20:37.912Z,2.20
2022-08-09T13:24:15.963Z,2.25
2022-08-09T13:26:49.941Z,2.40
2022-08-09T13:29:42.146Z,2.78
2022-08-09T13:32:13.879Z,2.38
2022-08-09T13:34:45.024Z,2.45
2022-08-09T13:37:13.221Z,2.58
2022-08-09T13:41:52.561Z,2.28
2022-08-09T13:42:46.859Z,2.38
2022-08-09T13:45:14.718Z,2.30
2022-08-09T13:47:51.208Z,2.20
2022-08-09T13:50:30.500Z,2.42
2022-08-09T13:52:58.382Z,2.03
2022-08-09T13:55:28.679Z,2.17
2022-08-09T13:57:58.524Z,2.15
2022-08-09T14:00:28.963Z,1.60
2022-08-09T14:05:58.644Z,1.77
2022-08-09T14:08:18.133Z,2.17
2022-08-09T14:10:50.314Z,1.90
2022-08-09T14:13:28.126Z,2.05
2022-08-09T14:16:13.878Z,1.80
2022-08-09T14:18:45.521Z,1.42
2022-08-09T14:21:18.641Z,2.10
2022-08-09T14:23:53.831Z,2.10
2022-08-09T14:26:33.704Z,2.33
2022-08-09T14:29:07.903Z,1.90
2022-08-09T14:34:31.932Z,1.92
2022-08-09T14:37:08.221Z,1.80
2022-08-09T14:39:45.598Z,2.10
2022-08-09T14:42:30.898Z,2.25
2022-08-09T14:46:38.915Z,2.28
2022-08-09T14:47:57.821Z,1.77
2022-08-09T14:50:31.218Z,1.90
2022-08-09T14:54:03.784Z,1.80
2022-08-09T14:56:58.313Z,1.70
2022-08-09T14:59:39.575Z,2.35
2022-08-09T15:07:10.185Z,1.88
2022-08-09T15:10:04.609Z,1.80
2022-08-09T15:15:23.589Z,1.70
2022-08-09T15:17:53.212Z,2.38
2022-08-09T15:21:58.871Z,2.00
2022-08-09T15:24:02.619Z,1.73
2022-08-09T15:25:59.521Z,1.80
2022-08-09T15:28:33.065Z,1.58
2022-08-09T15:31:10.163Z,1.90
2022-08-09T15:34:17.249Z,1.55
2022-08-09T15:36:30.567Z,1.85
2022-08-09T15:39:00.882Z,1.52
2022-08-09T15:41:31.708Z,2.00
2022-08-09T15:44:02.848Z,1.75
2022-08-09T15:49:22.113Z,1.67
2022-08-09T15:52:03.812Z,1.98
2022-08-09T15:54:48.983Z,1.80
2022-08-09T15:57:35.904Z,2.30
2022-08-09T16:00:14.576Z,1.90
2022-08-09T16:02:54.125Z,1.52
2022-08-09T16:09:57.838Z,1.92
2022-08-09T16:16:17.463Z,1.80
2022-08-09T16:36:50.438Z,1.90
2022-08-09T16:42:03.685Z,1.50
2022-08-09T16:44:32.331Z,1.40
2022-08-09T16:50:31.144Z,1.30
2022-08-09T16:53:01.921Z,1.50
2022-08-09T16:55:44.116Z,1.50
2022-08-09T16:58:35.718Z,1.48
2022-08-09T17:04:11.387Z,1.58
2022-08-09T17:08:41.641Z,1.80
2022-08-09T17:09:44.987Z,1.58
2022-08-09T17:12:15.364Z,1.30
2022-08-09T17:14:47.986Z,2.20
2022-08-09T17:17:26.496Z,1.45
2022-08-09T17:20:29.869Z,1.83
2022-08-09T17:22:49.776Z,1.75
2022-08-09T17:25:23.300Z,1.77
2022-08-09T17:27:54.388Z,1.27
2022-08-09T17:30:30.831Z,1.40
2022-08-09T17:33:05.141Z,1.88
2022-08-09T17:35:45.505Z,1.67
2022-08-09T17:38:30.650Z,1.90
2022-08-09T17:41:00.689Z,1.70
2022-08-09T17:43:33.892Z,1.90
2022-08-09T17:46:06.086Z,1.52
2022-08-09T17:48:39.851Z,1.77
2022-08-09T17:51:18.691Z,1.40
2022-08-09T17:53:53.552Z,1.60
2022-08-09T17:56:28.746Z,1.45
2022-08-09T17:58:58.052Z,1.60
2022-08-09T18:01:24.908Z,1.88
2022-08-09T18:03:54.505Z,1.30
2022-08-09T18:06:31.088Z,1.60
2022-08-09T18:09:03.097Z,2.10
2022-08-09T18:12:04.749Z,1.58
2022-08-09T18:14:22.946Z,1.45
2022-08-09T18:16:51.036Z,1.60
2022-08-09T18:20:55.134Z,1.80
2022-08-09T18:22:13.353Z,1.70
2022-08-09T18:24:45.772Z,1.73
2022-08-09T18:28:02.282Z,1.73
2022-08-09T18:30:40.975Z,2.28
2022-08-09T18:32:54.462Z,1.83
2022-08-09T18:35:58.140Z,1.92
2022-08-09T18:38:08.785Z,1.70
2022-08-09T18:40:35.655Z,2.00
2022-08-09T18:43:03.827Z,2.13
2022-08-09T18:46:49.011Z,2.05
2022-08-09T18:48:17.936Z,1.83
2022-08-09T18:50:44.866Z,1.95
2022-08-09T18:53:16.542Z,1.90
2022-08-09T18:55:45.452Z,1.70
2022-08-09T18:58:32.903Z,2.10
2022-08-09T19:01:00.305Z,1.95
2022-08-09T19:03:27.272Z,1.95
2022-08-09T19:06:03.672Z,2.10
2022-08-09T19:08:31.100Z,2.05
2022-08-09T19:10:57.715Z,1.55
2022-08-09T19:13:38.564Z,2.05
2022-08-09T19:16:11.387Z,1.80
2022-08-09T19:18:45.374Z,2.00
2022-08-09T19:21:12.780Z,1.90
2022-08-09T19:24:32.133Z,2.13
2022-08-09T19:26:34.783Z,1.67
2022-08-09T19:29:15.468Z,2.00
2022-08-09T19:31:51.226Z,2.28
2022-08-09T19:34:23.138Z,1.90
2022-08-09T19:36:54.999Z,2.40
2022-08-09T19:39:43.929Z,1.88
2022-08-09T19:42:15.269Z,1.50
2022-08-09T19:44:50.479Z,1.92
2022-08-09T19:47:22.860Z,2.30
2022-08-09T19:50:06.646Z,2.00
2022-08-09T19:52:37.544Z,1.90
2022-08-09T19:55:16.800Z,1.98
2022-08-09T19:57:46.314Z,2.13
2022-08-09T20:00:16.220Z,2.00
2022-08-09T20:04:11.491Z,2.20
2022-08-09T20:05:45.987Z,1.92
2022-08-09T20:08:16.134Z,2.20
2022-08-09T20:11:02.546Z,1.70
2022-08-09T20:13:36.790Z,2.17
2022-08-09T20:16:35.773Z,1.98
2022-08-09T20:19:41.851Z,1.75
2022-08-09T20:21:54.964Z,2.38
2022-08-09T20:24:31.849Z,2.08
2022-08-09T20:27:01.178Z,1.90
2022-08-09T20:29:36.943Z,1.88
2022-08-09T20:32:33.021Z,1.40
2022-08-09T20:34:53.949Z,1.77
2022-08-09T20:37:21.582Z,1.70
2022-08-09T20:40:16.499Z,1.75
2022-08-09T20:42:37.715Z,1.58
2022-08-09T20:45:56.713Z,1.70
2022-08-09T20:47:52.507Z,1.60
2022-08-09T20:50:47.585Z,1.70
2022-08-09T20:53:35.042Z,1.35
2022-08-09T20:56:02.524Z,1.63
2022-08-09T20:58:32.214Z,1.70
2022-08-09T21:01:14.063Z,1.70
2022-08-09T21:04:33.249Z,1.50
2022-08-09T21:06:35.145Z,2.15
2022-08-09T21:09:02.734Z,2.13
2022-08-09T21:14:16.900Z,1.65
2022-08-09T21:16:45.752Z,1.75
2022-08-09T21:20:16.104Z,1.92
2022-08-09T21:22:00.151Z,1.58
2022-08-09T21:24:32.584Z,2.08
2022-08-09T21:27:50.342Z,1.83
2022-08-09T21:29:49.374Z,1.75
2022-08-09T21:32:18.735Z,2.10
2022-08-09T21:34:49.173Z,1.73
2022-08-09T21:37:18.335Z,1.92
2022-08-09T21:39:45.454Z,1.92
2022-08-09T21:42:17.109Z,1.73
2022-08-09T21:44:44.417Z,1.92
2022-08-09T21:47:14.174Z,1.92
2022-08-09T21:49:44.781Z,1.90
2022-08-09T21:52:16.723Z,2.13
2022-08-09T21:54:59.370Z,1.73
2022-08-09T21:57:38.712Z,1.73
2022-08-09T22:00:38.170Z,1.80
2022-08-09T22:03:12.619Z,2.05
2022-08-09T22:05:46.549Z,1.97
2022-08-09T22:08:18.309Z,2.10
2022-08-09T22:11:50.355Z,2.22
2022-08-09T22:13:35.761Z,2.90
2022-08-09T22:16:09.037Z,3.25
2022-08-09T22:18:53.306Z,4.20
2022-08-09T22:21:24.865Z,5.32
2022-08-09T22:24:01.421Z,5.05
2022-08-09T22:26:34.778Z,5.07
2022-08-09T22:29:09.236Z,5.85
2022-08-09T22:31:38.133Z,5.20
2022-08-09T22:34:14.685Z,4.75
2022-08-09T22:36:45.991Z,4.57
2022-08-09T22:39:46.689Z,4.68
2022-08-09T22:42:02.657Z,4.43
2022-08-09T22:44:32.723Z,4.00
2022-08-09T22:48:15.361Z,4.40
2022-08-09T22:49:47.404Z,4.13
2022-08-09T22:52:19.619Z,3.35
2022-08-09T22:54:47.498Z,3.88
2022-08-09T22:57:14.780Z,2.95
2022-08-09T22:59:57.878Z,3.45
2022-08-09T23:02:27.300Z,2.97
2022-08-09T23:04:54.829Z,2.47
2022-08-09T23:08:22.826Z,2.95
2022-08-09T23:10:31.052Z,2.92
2022-08-09T23:12:58.872Z,2.75
2022-08-09T23:15:26.516Z,2.38
2022-08-09T23:17:53.317Z,2.40
2022-08-09T23:20:20.031Z,2.03
2022-08-09T23:22:46.794Z,2.60
2022-08-09T23:25:13.663Z,2.10
2022-08-09T23:28:14.838Z,2.40
2022-08-09T23:30:28.118Z,2.20
2022-08-09T23:32:54.769Z,2.50
2022-08-09T23:35:21.493Z,2.65
2022-08-09T23:37:48.190Z,2.70
2022-08-09T23:40:17.152Z,2.38
2022-08-09T23:42:43.967Z,2.33
2022-08-09T23:45:11.244Z,2.40
2022-08-09T23:47:58.007Z,2.55
2022-08-09T23:50:24.884Z,2.40
2022-08-09T23:52:51.583Z,2.17
2022-08-09T23:55:19.160Z,2.63
2022-08-09T23:57:56.868Z,2.40
